sensor_id;sensor_type;location;lat;lon;timestamp;temperature;humidity
14798;DHT22;7490;63.708;20.368;2024-03-07T00:00:34;-0.30;99.90
14798;DHT22;7490;63.708;20.368;2024-03-07T00:03:00;-0.30;99.90
14798;DHT22;7490;63.708;20.368;2024-03-07T00:05:26;-0.30;99.90
14798;DHT22;7490;63.708;20.368;2024-03-07T00:07:53;-0.30;99.90
14798;DHT22;7490;63.708;20.368;2024-03-07T00:10:19;-0.30;99.90
14798;DHT22;7490;63.708;20.368;2024-03-07T00:12:46;-0.30;99.90
14798;DHT22;7490;63.708;20.368;2024-03-07T00:15:14;-0.30;99.90
14798;DHT22;7490;63.708;20.368;2024-03-07T00:17:40;-0.20;99.90
14798;DHT22;7490;63.708;20.368;2024-03-07T00:20:06;-0.20;99.90
14798;DHT22;7490;63.708;20.368;2024-03-07T00:22:41;-0.20;99.90
14798;DHT22;7490;63.708;20.368;2024-03-07T00:25:08;-0.10;99.90
14798;DHT22;7490;63.708;20.368;2024-03-07T00:27:35;-0.10;99.90
14798;DHT22;7490;63.708;20.368;2024-03-07T00:30:05;-0.10;99.90
14798;DHT22;7490;63.708;20.368;2024-03-07T00:32:33;-0.10;99.90
14798;DHT22;7490;63.708;20.368;2024-03-07T00:35:02;-0.10;99.90
14798;DHT22;7490;63.708;20.368;2024-03-07T00:37:29;-0.10;99.90
14798;DHT22;7490;63.708;20.368;2024-03-07T00:39:56;-0.10;99.90
14798;DHT22;7490;63.708;20.368;2024-03-07T00:42:22;-0.10;99.90
14798;DHT22;7490;63.708;20.368;2024-03-07T00:44:48;-0.10;99.90
14798;DHT22;7490;63.708;20.368;2024-03-07T00:47:15;-0.20;99.90
14798;DHT22;7490;63.708;20.368;2024-03-07T00:49:43;-0.10;99.90
14798;DHT22;7490;63.708;20.368;2024-03-07T00:52:09;-0.10;99.90
14798;DHT22;7490;63.708;20.368;2024-03-07T00:54:35;-0.10;99.90
14798;DHT22;7490;63.708;20.368;2024-03-07T00:57:01;-0.10;99.90
14798;DHT22;7490;63.708;20.368;2024-03-07T00:59:27;-0.10;99.90
14798;DHT22;7490;63.708;20.368;2024-03-07T01:01:53;-0.20;99.90
14798;DHT22;7490;63.708;20.368;2024-03-07T01:04:19;-0.10;99.90
14798;DHT22;7490;63.708;20.368;2024-03-07T01:06:44;-0.10;99.90
14798;DHT22;7490;63.708;20.368;2024-03-07T01:09:10;-0.20;99.90
14798;DHT22;7490;63.708;20.368;2024-03-07T01:11:44;-0.20;99.90
14798;DHT22;7490;63.708;20.368;2024-03-07T01:14:13;-0.20;99.90
14798;DHT22;7490;63.708;20.368;2024-03-07T01:16:39;-0.20;99.90
14798;DHT22;7490;63.708;20.368;2024-03-07T01:19:04;-0.20;99.90
14798;DHT22;7490;63.708;20.368;2024-03-07T01:21:32;-0.20;99.90
14798;DHT22;7490;63.708;20.368;2024-03-07T01:23:59;-0.20;99.90
14798;DHT22;7490;63.708;20.368;2024-03-07T01:26:27;-0.20;99.90
14798;DHT22;7490;63.708;20.368;2024-03-07T01:28:53;-0.20;99.90
14798;DHT22;7490;63.708;20.368;2024-03-07T01:31:21;-0.20;99.90
14798;DHT22;7490;63.708;20.368;2024-03-07T01:33:47;-0.20;99.90
14798;DHT22;7490;63.708;20.368;2024-03-07T01:36:13;-0.20;99.90
14798;DHT22;7490;63.708;20.368;2024-03-07T01:38:39;-0.20;99.90
14798;DHT22;7490;63.708;20.368;2024-03-07T01:41:04;-0.30;99.90
14798;DHT22;7490;63.708;20.368;2024-03-07T01:43:30;-0.30;99.90
14798;DHT22;7490;63.708;20.368;2024-03-07T01:45:57;-0.30;99.90
14798;DHT22;7490;63.708;20.368;2024-03-07T01:48:27;-0.30;99.90
14798;DHT22;7490;63.708;20.368;2024-03-07T01:50:55;-0.30;99.90
14798;DHT22;7490;63.708;20.368;2024-03-07T01:53:22;-0.30;99.90
14798;DHT22;7490;63.708;20.368;2024-03-07T01:55:48;-0.40;99.90
14798;DHT22;7490;63.708;20.368;2024-03-07T01:58:18;-0.40;99.90
14798;DHT22;7490;63.708;20.368;2024-03-07T02:00:44;-0.30;99.90
14798;DHT22;7490;63.708;20.368;2024-03-07T02:03:09;-0.40;99.90
14798;DHT22;7490;63.708;20.368;2024-03-07T02:05:35;-0.40;99.90
14798;DHT22;7490;63.708;20.368;2024-03-07T02:08:01;-0.40;99.90
14798;DHT22;7490;63.708;20.368;2024-03-07T02:10:27;-0.40;99.90
14798;DHT22;7490;63.708;20.368;2024-03-07T02:12:53;-0.50;99.90
14798;DHT22;7490;63.708;20.368;2024-03-07T02:15:18;-0.50;99.90
14798;DHT22;7490;63.708;20.368;2024-03-07T02:17:44;-0.50;99.90
14798;DHT22;7490;63.708;20.368;2024-03-07T02:20:10;-0.50;99.90
14798;DHT22;7490;63.708;20.368;2024-03-07T02:22:37;-0.50;99.90
14798;DHT22;7490;63.708;20.368;2024-03-07T02:25:03;-0.60;99.90
14798;DHT22;7490;63.708;20.368;2024-03-07T02:27:29;-0.60;99.90
14798;DHT22;7490;63.708;20.368;2024-03-07T02:29:54;-0.60;99.90
14798;DHT22;7490;63.708;20.368;2024-03-07T02:32:21;-0.70;99.90
14798;DHT22;7490;63.708;20.368;2024-03-07T02:34:48;-0.70;99.90
14798;DHT22;7490;63.708;20.368;2024-03-07T02:37:14;-0.80;99.90
14798;DHT22;7490;63.708;20.368;2024-03-07T02:39:40;-0.80;99.90
14798;DHT22;7490;63.708;20.368;2024-03-07T02:42:06;-0.80;99.90
14798;DHT22;7490;63.708;20.368;2024-03-07T02:44:31;-0.80;99.90
14798;DHT22;7490;63.708;20.368;2024-03-07T02:46:58;-0.80;99.90
14798;DHT22;7490;63.708;20.368;2024-03-07T02:49:23;-0.70;99.90
14798;DHT22;7490;63.708;20.368;2024-03-07T02:51:49;-0.80;99.90
14798;DHT22;7490;63.708;20.368;2024-03-07T02:54:15;-0.80;99.90
14798;DHT22;7490;63.708;20.368;2024-03-07T02:56:41;-0.80;99.90
14798;DHT22;7490;63.708;20.368;2024-03-07T02:59:06;-0.80;99.90
14798;DHT22;7490;63.708;20.368;2024-03-07T03:01:32;-0.80;99.90
14798;DHT22;7490;63.708;20.368;2024-03-07T03:03:58;-0.80;99.90
14798;DHT22;7490;63.708;20.368;2024-03-07T03:06:24;-0.80;99.90
14798;DHT22;7490;63.708;20.368;2024-03-07T03:08:50;-0.80;99.90
14798;DHT22;7490;63.708;20.368;2024-03-07T03:11:16;-0.80;99.90
14798;DHT22;7490;63.708;20.368;2024-03-07T03:13:41;-0.80;99.90
14798;DHT22;7490;63.708;20.368;2024-03-07T03:16:07;-0.80;99.90
14798;DHT22;7490;63.708;20.368;2024-03-07T03:18:34;-0.70;99.90
14798;DHT22;7490;63.708;20.368;2024-03-07T03:21:03;-0.80;99.90
14798;DHT22;7490;63.708;20.368;2024-03-07T03:23:29;-0.80;99.90
14798;DHT22;7490;63.708;20.368;2024-03-07T03:25:54;-0.90;99.90
14798;DHT22;7490;63.708;20.368;2024-03-07T03:28:21;-0.90;99.90
14798;DHT22;7490;63.708;20.368;2024-03-07T03:30:48;-0.90;99.90
14798;DHT22;7490;63.708;20.368;2024-03-07T03:33:14;-0.90;99.90
14798;DHT22;7490;63.708;20.368;2024-03-07T03:35:40;-0.90;99.90
14798;DHT22;7490;63.708;20.368;2024-03-07T03:38:07;-0.90;99.90
14798;DHT22;7490;63.708;20.368;2024-03-07T03:40:33;-0.90;99.90
14798;DHT22;7490;63.708;20.368;2024-03-07T03:43:00;-0.90;99.90
14798;DHT22;7490;63.708;20.368;2024-03-07T03:45:26;-0.90;99.90
14798;DHT22;7490;63.708;20.368;2024-03-07T03:47:52;-1.00;99.90
14798;DHT22;7490;63.708;20.368;2024-03-07T03:50:18;-1.00;99.90
14798;DHT22;7490;63.708;20.368;2024-03-07T03:52:44;-1.00;99.90
14798;DHT22;7490;63.708;20.368;2024-03-07T03:55:10;-1.00;99.90
14798;DHT22;7490;63.708;20.368;2024-03-07T03:57:38;-1.10;99.90
14798;DHT22;7490;63.708;20.368;2024-03-07T04:00:07;-1.10;99.90
14798;DHT22;7490;63.708;20.368;2024-03-07T04:02:44;-1.10;99.90
14798;DHT22;7490;63.708;20.368;2024-03-07T04:05:13;-1.10;99.90
14798;DHT22;7490;63.708;20.368;2024-03-07T04:07:40;-1.10;99.90
14798;DHT22;7490;63.708;20.368;2024-03-07T04:10:08;-1.20;99.90
14798;DHT22;7490;63.708;20.368;2024-03-07T04:12:35;-1.20;99.90
14798;DHT22;7490;63.708;20.368;2024-03-07T04:15:03;-1.30;99.90
14798;DHT22;7490;63.708;20.368;2024-03-07T04:17:30;-1.30;99.90
14798;DHT22;7490;63.708;20.368;2024-03-07T04:19:56;-1.40;99.90
14798;DHT22;7490;63.708;20.368;2024-03-07T04:22:24;-1.50;99.90
14798;DHT22;7490;63.708;20.368;2024-03-07T04:24:50;-1.50;99.90
14798;DHT22;7490;63.708;20.368;2024-03-07T04:27:19;-1.50;99.90
14798;DHT22;7490;63.708;20.368;2024-03-07T04:29:46;-1.60;99.90
14798;DHT22;7490;63.708;20.368;2024-03-07T04:32:13;-1.60;99.90
14798;DHT22;7490;63.708;20.368;2024-03-07T04:34:39;-1.60;99.90
14798;DHT22;7490;63.708;20.368;2024-03-07T04:37:05;-1.60;99.90
14798;DHT22;7490;63.708;20.368;2024-03-07T04:39:31;-1.50;99.90
14798;DHT22;7490;63.708;20.368;2024-03-07T04:42:04;-1.60;99.90
14798;DHT22;7490;63.708;20.368;2024-03-07T04:44:32;-1.60;99.90
14798;DHT22;7490;63.708;20.368;2024-03-07T04:46:59;-1.60;99.90
14798;DHT22;7490;63.708;20.368;2024-03-07T04:49:27;-1.70;99.90
14798;DHT22;7490;63.708;20.368;2024-03-07T04:51:55;-1.70;99.90
14798;DHT22;7490;63.708;20.368;2024-03-07T04:54:21;-1.70;99.90
14798;DHT22;7490;63.708;20.368;2024-03-07T04:56:49;-1.80;99.90
14798;DHT22;7490;63.708;20.368;2024-03-07T04:59:15;-1.80;99.90
14798;DHT22;7490;63.708;20.368;2024-03-07T05:01:42;-1.80;99.90
14798;DHT22;7490;63.708;20.368;2024-03-07T05:04:08;-1.80;99.90
14798;DHT22;7490;63.708;20.368;2024-03-07T05:06:34;-1.80;99.90
14798;DHT22;7490;63.708;20.368;2024-03-07T05:09:04;-1.70;99.90
14798;DHT22;7490;63.708;20.368;2024-03-07T05:11:33;-1.70;99.90
14798;DHT22;7490;63.708;20.368;2024-03-07T05:13:59;-1.70;99.90
14798;DHT22;7490;63.708;20.368;2024-03-07T05:16:26;-1.70;99.90
14798;DHT22;7490;63.708;20.368;2024-03-07T05:18:51;-1.70;99.90
14798;DHT22;7490;63.708;20.368;2024-03-07T05:21:19;-1.60;99.90
14798;DHT22;7490;63.708;20.368;2024-03-07T05:24:00;-1.60;99.90
14798;DHT22;7490;63.708;20.368;2024-03-07T05:26:27;-1.60;99.90
14798;DHT22;7490;63.708;20.368;2024-03-07T05:28:53;-1.60;99.90
14798;DHT22;7490;63.708;20.368;2024-03-07T05:31:22;-1.70;99.90
14798;DHT22;7490;63.708;20.368;2024-03-07T05:33:47;-1.70;99.90
14798;DHT22;7490;63.708;20.368;2024-03-07T05:36:13;-1.70;99.90
14798;DHT22;7490;63.708;20.368;2024-03-07T05:38:43;-1.70;99.90
14798;DHT22;7490;63.708;20.368;2024-03-07T05:41:10;-1.70;99.90
14798;DHT22;7490;63.708;20.368;2024-03-07T05:43:36;-1.70;99.90
14798;DHT22;7490;63.708;20.368;2024-03-07T05:46:02;-1.70;99.90
14798;DHT22;7490;63.708;20.368;2024-03-07T05:48:28;-1.70;99.90
14798;DHT22;7490;63.708;20.368;2024-03-07T05:50:54;-1.70;99.90
14798;DHT22;7490;63.708;20.368;2024-03-07T05:53:20;-1.60;99.90
14798;DHT22;7490;63.708;20.368;2024-03-07T05:55:46;-1.70;99.90
14798;DHT22;7490;63.708;20.368;2024-03-07T05:58:12;-1.70;99.90
14798;DHT22;7490;63.708;20.368;2024-03-07T06:00:37;-1.70;99.90
14798;DHT22;7490;63.708;20.368;2024-03-07T06:03:06;-1.80;99.90
14798;DHT22;7490;63.708;20.368;2024-03-07T06:05:33;-1.80;99.90
14798;DHT22;7490;63.708;20.368;2024-03-07T06:07:59;-1.80;99.90
14798;DHT22;7490;63.708;20.368;2024-03-07T06:10:25;-1.70;99.90
14798;DHT22;7490;63.708;20.368;2024-03-07T06:12:52;-1.80;99.90
14798;DHT22;7490;63.708;20.368;2024-03-07T06:15:18;-1.80;99.90
14798;DHT22;7490;63.708;20.368;2024-03-07T06:17:43;-1.80;99.90
14798;DHT22;7490;63.708;20.368;2024-03-07T06:20:12;-1.80;99.90
14798;DHT22;7490;63.708;20.368;2024-03-07T06:22:48;-1.70;99.90
14798;DHT22;7490;63.708;20.368;2024-03-07T06:25:17;-1.70;99.90
14798;DHT22;7490;63.708;20.368;2024-03-07T06:27:44;-1.60;99.90
14798;DHT22;7490;63.708;20.368;2024-03-07T06:30:14;-1.60;99.90
14798;DHT22;7490;63.708;20.368;2024-03-07T06:32:46;-1.60;99.90
14798;DHT22;7490;63.708;20.368;2024-03-07T06:35:12;-1.60;99.90
14798;DHT22;7490;63.708;20.368;2024-03-07T06:37:38;-1.60;99.90
14798;DHT22;7490;63.708;20.368;2024-03-07T06:40:05;-1.50;99.90
14798;DHT22;7490;63.708;20.368;2024-03-07T06:42:35;-1.50;99.90
14798;DHT22;7490;63.708;20.368;2024-03-07T06:45:03;-1.40;99.90
14798;DHT22;7490;63.708;20.368;2024-03-07T06:47:29;-1.40;99.90
14798;DHT22;7490;63.708;20.368;2024-03-07T06:49:55;-1.30;99.90
14798;DHT22;7490;63.708;20.368;2024-03-07T06:52:21;-1.20;99.90
14798;DHT22;7490;63.708;20.368;2024-03-07T06:54:47;-1.20;99.90
14798;DHT22;7490;63.708;20.368;2024-03-07T06:57:13;-1.10;99.90
14798;DHT22;7490;63.708;20.368;2024-03-07T06:59:39;-1.00;99.90
14798;DHT22;7490;63.708;20.368;2024-03-07T07:02:05;-1.00;99.90
14798;DHT22;7490;63.708;20.368;2024-03-07T07:04:30;-1.00;99.90
14798;DHT22;7490;63.708;20.368;2024-03-07T07:07:07;-0.90;99.90
14798;DHT22;7490;63.708;20.368;2024-03-07T07:09:36;-0.90;99.90
14798;DHT22;7490;63.708;20.368;2024-03-07T07:12:02;-0.80;99.90
14798;DHT22;7490;63.708;20.368;2024-03-07T07:14:28;-0.70;99.90
14798;DHT22;7490;63.708;20.368;2024-03-07T07:16:53;-0.60;99.90
14798;DHT22;7490;63.708;20.368;2024-03-07T07:19:19;-0.50;99.90
14798;DHT22;7490;63.708;20.368;2024-03-07T07:21:45;-0.40;99.90
14798;DHT22;7490;63.708;20.368;2024-03-07T07:24:12;-0.40;99.90
14798;DHT22;7490;63.708;20.368;2024-03-07T07:26:38;-0.40;99.90
14798;DHT22;7490;63.708;20.368;2024-03-07T07:29:04;-0.30;99.90
14798;DHT22;7490;63.708;20.368;2024-03-07T07:31:30;-0.20;99.90
14798;DHT22;7490;63.708;20.368;2024-03-07T07:33:57;-0.10;99.90
14798;DHT22;7490;63.708;20.368;2024-03-07T07:36:23;-0.10;99.90
14798;DHT22;7490;63.708;20.368;2024-03-07T07:38:49;0.00;99.90
14798;DHT22;7490;63.708;20.368;2024-03-07T07:41:14;0.10;99.90
14798;DHT22;7490;63.708;20.368;2024-03-07T07:43:40;0.20;99.90
14798;DHT22;7490;63.708;20.368;2024-03-07T07:46:06;0.30;99.90
14798;DHT22;7490;63.708;20.368;2024-03-07T07:48:33;0.40;99.90
14798;DHT22;7490;63.708;20.368;2024-03-07T07:50:59;0.50;99.90
14798;DHT22;7490;63.708;20.368;2024-03-07T07:53:25;0.50;99.90
14798;DHT22;7490;63.708;20.368;2024-03-07T07:55:50;0.60;99.90
14798;DHT22;7490;63.708;20.368;2024-03-07T07:58:16;0.50;99.90
14798;DHT22;7490;63.708;20.368;2024-03-07T08:00:42;0.60;99.90
14798;DHT22;7490;63.708;20.368;2024-03-07T08:03:10;0.50;99.90
14798;DHT22;7490;63.708;20.368;2024-03-07T08:05:37;0.50;99.90
14798;DHT22;7490;63.708;20.368;2024-03-07T08:08:05;0.60;99.90
14798;DHT22;7490;63.708;20.368;2024-03-07T08:10:33;0.60;99.90
14798;DHT22;7490;63.708;20.368;2024-03-07T08:13:00;0.60;99.90
14798;DHT22;7490;63.708;20.368;2024-03-07T08:15:27;0.70;99.90
14798;DHT22;7490;63.708;20.368;2024-03-07T08:17:57;0.70;99.90
14798;DHT22;7490;63.708;20.368;2024-03-07T08:20:23;0.70;99.90
14798;DHT22;7490;63.708;20.368;2024-03-07T08:22:52;0.80;99.90
14798;DHT22;7490;63.708;20.368;2024-03-07T08:25:19;0.80;99.90
14798;DHT22;7490;63.708;20.368;2024-03-07T08:27:46;0.80;99.90
14798;DHT22;7490;63.708;20.368;2024-03-07T08:30:14;0.80;99.90
14798;DHT22;7490;63.708;20.368;2024-03-07T08:32:50;0.70;99.90
14798;DHT22;7490;63.708;20.368;2024-03-07T08:35:19;0.80;99.90
14798;DHT22;7490;63.708;20.368;2024-03-07T08:37:46;0.80;99.90
14798;DHT22;7490;63.708;20.368;2024-03-07T08:40:19;0.80;99.90
14798;DHT22;7490;63.708;20.368;2024-03-07T08:42:48;0.80;99.90
14798;DHT22;7490;63.708;20.368;2024-03-07T08:45:17;0.80;99.90
14798;DHT22;7490;63.708;20.368;2024-03-07T08:47:48;0.90;99.90
14798;DHT22;7490;63.708;20.368;2024-03-07T08:50:15;1.00;99.90
14798;DHT22;7490;63.708;20.368;2024-03-07T08:52:41;1.10;99.90
14798;DHT22;7490;63.708;20.368;2024-03-07T08:55:09;1.20;99.90
14798;DHT22;7490;63.708;20.368;2024-03-07T08:57:40;1.30;99.90
14798;DHT22;7490;63.708;20.368;2024-03-07T09:00:08;1.20;99.90
14798;DHT22;7490;63.708;20.368;2024-03-07T09:02:35;1.20;99.90
14798;DHT22;7490;63.708;20.368;2024-03-07T09:05:04;1.10;99.90
14798;DHT22;7490;63.708;20.368;2024-03-07T09:07:30;1.20;99.90
14798;DHT22;7490;63.708;20.368;2024-03-07T09:09:56;1.30;99.90
14798;DHT22;7490;63.708;20.368;2024-03-07T09:12:22;1.40;99.90
14798;DHT22;7490;63.708;20.368;2024-03-07T09:14:51;1.50;99.90
14798;DHT22;7490;63.708;20.368;2024-03-07T09:17:18;1.50;99.90
14798;DHT22;7490;63.708;20.368;2024-03-07T09:19:43;1.50;99.90
14798;DHT22;7490;63.708;20.368;2024-03-07T09:22:09;1.60;99.90
14798;DHT22;7490;63.708;20.368;2024-03-07T09:24:35;1.50;99.90
14798;DHT22;7490;63.708;20.368;2024-03-07T09:27:03;1.50;99.90
14798;DHT22;7490;63.708;20.368;2024-03-07T09:29:29;1.50;99.90
14798;DHT22;7490;63.708;20.368;2024-03-07T09:31:54;1.50;99.90
14798;DHT22;7490;63.708;20.368;2024-03-07T09:34:21;1.50;99.90
14798;DHT22;7490;63.708;20.368;2024-03-07T09:36:47;1.60;99.90
14798;DHT22;7490;63.708;20.368;2024-03-07T09:39:14;1.60;99.90
14798;DHT22;7490;63.708;20.368;2024-03-07T09:41:41;1.60;99.90
14798;DHT22;7490;63.708;20.368;2024-03-07T09:44:09;1.60;99.90
14798;DHT22;7490;63.708;20.368;2024-03-07T09:46:37;1.50;99.90
14798;DHT22;7490;63.708;20.368;2024-03-07T09:49:04;1.50;99.90
14798;DHT22;7490;63.708;20.368;2024-03-07T09:51:31;1.50;99.90
14798;DHT22;7490;63.708;20.368;2024-03-07T09:53:59;1.70;99.90
14798;DHT22;7490;63.708;20.368;2024-03-07T09:56:26;1.80;99.90
14798;DHT22;7490;63.708;20.368;2024-03-07T09:58:57;1.90;99.90
14798;DHT22;7490;63.708;20.368;2024-03-07T10:01:25;2.00;99.90
14798;DHT22;7490;63.708;20.368;2024-03-07T10:03:57;2.10;99.90
14798;DHT22;7490;63.708;20.368;2024-03-07T10:06:23;2.10;99.90
14798;DHT22;7490;63.708;20.368;2024-03-07T10:08:50;2.20;99.90
14798;DHT22;7490;63.708;20.368;2024-03-07T10:11:16;2.20;99.90
14798;DHT22;7490;63.708;20.368;2024-03-07T10:13:41;2.30;99.90
14798;DHT22;7490;63.708;20.368;2024-03-07T10:16:07;2.40;99.90
14798;DHT22;7490;63.708;20.368;2024-03-07T10:18:41;2.50;99.90
14798;DHT22;7490;63.708;20.368;2024-03-07T10:21:07;2.60;99.90
14798;DHT22;7490;63.708;20.368;2024-03-07T10:23:32;2.70;99.90
14798;DHT22;7490;63.708;20.368;2024-03-07T10:26:01;2.80;99.90
14798;DHT22;7490;63.708;20.368;2024-03-07T10:28:27;2.80;99.90
14798;DHT22;7490;63.708;20.368;2024-03-07T10:30:53;2.90;99.90
14798;DHT22;7490;63.708;20.368;2024-03-07T10:33:19;3.00;99.90
14798;DHT22;7490;63.708;20.368;2024-03-07T10:35:49;3.20;99.90
14798;DHT22;7490;63.708;20.368;2024-03-07T10:38:15;3.40;99.90
14798;DHT22;7490;63.708;20.368;2024-03-07T10:40:41;3.60;99.90
14798;DHT22;7490;63.708;20.368;2024-03-07T10:43:10;3.80;99.90
14798;DHT22;7490;63.708;20.368;2024-03-07T10:45:47;4.00;99.90
14798;DHT22;7490;63.708;20.368;2024-03-07T10:48:16;4.10;99.90
14798;DHT22;7490;63.708;20.368;2024-03-07T11:01:30;4.20;99.90
14798;DHT22;7490;63.708;20.368;2024-03-07T11:03:59;4.10;99.90
14798;DHT22;7490;63.708;20.368;2024-03-07T11:06:25;4.00;99.90
14798;DHT22;7490;63.708;20.368;2024-03-07T11:08:52;3.90;99.90
14798;DHT22;7490;63.708;20.368;2024-03-07T11:11:18;3.80;99.90
14798;DHT22;7490;63.708;20.368;2024-03-07T11:13:45;3.70;99.90
14798;DHT22;7490;63.708;20.368;2024-03-07T11:16:12;3.70;99.90
14798;DHT22;7490;63.708;20.368;2024-03-07T11:18:40;3.50;99.90
14798;DHT22;7490;63.708;20.368;2024-03-07T11:21:05;3.50;99.90
14798;DHT22;7490;63.708;20.368;2024-03-07T11:23:33;3.50;99.90
14798;DHT22;7490;63.708;20.368;2024-03-07T11:26:10;3.50;99.90
14798;DHT22;7490;63.708;20.368;2024-03-07T11:28:38;3.40;99.90
14798;DHT22;7490;63.708;20.368;2024-03-07T11:31:08;3.30;99.90
14798;DHT22;7490;63.708;20.368;2024-03-07T11:33:37;3.30;99.90
14798;DHT22;7490;63.708;20.368;2024-03-07T11:36:06;3.40;99.90
14798;DHT22;7490;63.708;20.368;2024-03-07T11:38:32;3.40;99.90
14798;DHT22;7490;63.708;20.368;2024-03-07T11:41:00;3.50;99.90
14798;DHT22;7490;63.708;20.368;2024-03-07T11:43:32;3.60;99.90
14798;DHT22;7490;63.708;20.368;2024-03-07T11:45:59;3.70;99.90
14798;DHT22;7490;63.708;20.368;2024-03-07T11:48:25;3.80;99.90
14798;DHT22;7490;63.708;20.368;2024-03-07T11:50:50;3.90;99.90
14798;DHT22;7490;63.708;20.368;2024-03-07T11:53:16;3.90;99.90
14798;DHT22;7490;63.708;20.368;2024-03-07T11:55:43;4.00;99.90
14798;DHT22;7490;63.708;20.368;2024-03-07T11:58:20;3.90;99.90
14798;DHT22;7490;63.708;20.368;2024-03-07T12:00:50;4.00;99.90
14798;DHT22;7490;63.708;20.368;2024-03-07T12:03:20;3.90;99.90
14798;DHT22;7490;63.708;20.368;2024-03-07T12:05:51;3.90;99.90
14798;DHT22;7490;63.708;20.368;2024-03-07T12:08:18;3.90;99.90
14798;DHT22;7490;63.708;20.368;2024-03-07T12:10:44;4.00;99.90
14798;DHT22;7490;63.708;20.368;2024-03-07T12:13:11;4.00;99.90
14798;DHT22;7490;63.708;20.368;2024-03-07T12:15:40;4.10;99.90
14798;DHT22;7490;63.708;20.368;2024-03-07T12:18:06;4.00;99.90
14798;DHT22;7490;63.708;20.368;2024-03-07T12:20:36;3.90;99.90
14798;DHT22;7490;63.708;20.368;2024-03-07T12:23:03;3.80;99.90
14798;DHT22;7490;63.708;20.368;2024-03-07T12:25:34;3.70;99.90
14798;DHT22;7490;63.708;20.368;2024-03-07T12:30:33;3.70;99.90
14798;DHT22;7490;63.708;20.368;2024-03-07T12:33:00;3.70;99.90
14798;DHT22;7490;63.708;20.368;2024-03-07T12:35:26;3.60;99.90
14798;DHT22;7490;63.708;20.368;2024-03-07T12:37:53;3.60;99.90
14798;DHT22;7490;63.708;20.368;2024-03-07T12:40:20;3.70;99.90
14798;DHT22;7490;63.708;20.368;2024-03-07T12:42:51;3.70;99.90
14798;DHT22;7490;63.708;20.368;2024-03-07T12:45:19;3.60;99.90
14798;DHT22;7490;63.708;20.368;2024-03-07T12:47:52;3.60;99.90
14798;DHT22;7490;63.708;20.368;2024-03-07T12:50:20;3.50;99.90
14798;DHT22;7490;63.708;20.368;2024-03-07T12:52:49;3.60;99.90
14798;DHT22;7490;63.708;20.368;2024-03-07T12:55:18;3.50;99.90
14798;DHT22;7490;63.708;20.368;2024-03-07T12:57:47;3.50;99.90
14798;DHT22;7490;63.708;20.368;2024-03-07T13:00:13;3.50;99.90
14798;DHT22;7490;63.708;20.368;2024-03-07T13:02:49;3.50;99.90
14798;DHT22;7490;63.708;20.368;2024-03-07T13:05:15;3.50;99.90
14798;DHT22;7490;63.708;20.368;2024-03-07T13:07:47;3.50;99.90
14798;DHT22;7490;63.708;20.368;2024-03-07T13:10:14;3.50;99.90
14798;DHT22;7490;63.708;20.368;2024-03-07T13:12:49;3.50;99.90
14798;DHT22;7490;63.708;20.368;2024-03-07T13:15:16;3.40;99.90
14798;DHT22;7490;63.708;20.368;2024-03-07T13:17:42;3.40;99.90
14798;DHT22;7490;63.708;20.368;2024-03-07T13:20:13;3.30;99.90
14798;DHT22;7490;63.708;20.368;2024-03-07T13:22:44;3.10;99.90
14798;DHT22;7490;63.708;20.368;2024-03-07T13:25:22;3.00;99.90
14798;DHT22;7490;63.708;20.368;2024-03-07T13:28:14;2.90;99.90
14798;DHT22;7490;63.708;20.368;2024-03-07T13:30:43;2.80;99.90
14798;DHT22;7490;63.708;20.368;2024-03-07T13:33:10;2.60;99.90
14798;DHT22;7490;63.708;20.368;2024-03-07T13:35:38;2.60;99.90
14798;DHT22;7490;63.708;20.368;2024-03-07T13:38:04;2.60;99.90
14798;DHT22;7490;63.708;20.368;2024-03-07T13:40:29;2.60;99.90
14798;DHT22;7490;63.708;20.368;2024-03-07T13:42:59;2.60;99.90
14798;DHT22;7490;63.708;20.368;2024-03-07T13:45:27;2.60;99.90
14798;DHT22;7490;63.708;20.368;2024-03-07T13:47:54;2.50;99.90
14798;DHT22;7490;63.708;20.368;2024-03-07T13:50:22;2.30;99.90
14798;DHT22;7490;63.708;20.368;2024-03-07T13:52:54;2.20;99.90
14798;DHT22;7490;63.708;20.368;2024-03-07T13:58:35;1.90;99.90
14798;DHT22;7490;63.708;20.368;2024-03-07T14:01:25;1.80;99.90
14798;DHT22;7490;63.708;20.368;2024-03-07T14:29:49;1.20;99.90
14798;DHT22;7490;63.708;20.368;2024-03-07T14:32:18;1.00;99.90
14798;DHT22;7490;63.708;20.368;2024-03-07T14:35:12;0.90;99.90
14798;DHT22;7490;63.708;20.368;2024-03-07T14:37:54;0.80;99.90
14798;DHT22;7490;63.708;20.368;2024-03-07T14:40:22;0.70;99.90
14798;DHT22;7490;63.708;20.368;2024-03-07T14:42:48;0.60;99.90
14798;DHT22;7490;63.708;20.368;2024-03-07T14:45:23;0.50;99.90
14798;DHT22;7490;63.708;20.368;2024-03-07T14:47:51;0.50;99.90
14798;DHT22;7490;63.708;20.368;2024-03-07T14:50:21;0.30;99.90
14798;DHT22;7490;63.708;20.368;2024-03-07T14:52:48;0.20;99.90
14798;DHT22;7490;63.708;20.368;2024-03-07T14:55:14;0.10;99.90
14798;DHT22;7490;63.708;20.368;2024-03-07T14:57:40;0.10;99.90
14798;DHT22;7490;63.708;20.368;2024-03-07T15:00:09;0.00;99.90
14798;DHT22;7490;63.708;20.368;2024-03-07T15:02:48;-0.10;99.90
14798;DHT22;7490;63.708;20.368;2024-03-07T15:05:15;-0.20;99.90
14798;DHT22;7490;63.708;20.368;2024-03-07T15:07:42;-0.30;99.90
14798;DHT22;7490;63.708;20.368;2024-03-07T15:10:17;-0.40;99.90
14798;DHT22;7490;63.708;20.368;2024-03-07T15:12:47;-0.50;99.90
14798;DHT22;7490;63.708;20.368;2024-03-07T15:15:14;-0.60;99.90
14798;DHT22;7490;63.708;20.368;2024-03-07T15:17:43;-0.60;99.90
14798;DHT22;7490;63.708;20.368;2024-03-07T15:20:11;-0.60;99.90
14798;DHT22;7490;63.708;20.368;2024-03-07T15:22:56;-0.70;99.90
14798;DHT22;7490;63.708;20.368;2024-03-07T15:25:23;-0.80;99.90
14798;DHT22;7490;63.708;20.368;2024-03-07T15:27:53;-0.90;99.90
14798;DHT22;7490;63.708;20.368;2024-03-07T15:30:22;-0.90;99.90
14798;DHT22;7490;63.708;20.368;2024-03-07T15:32:50;-1.00;99.90
14798;DHT22;7490;63.708;20.368;2024-03-07T15:35:16;-1.00;99.90
14798;DHT22;7490;63.708;20.368;2024-03-07T15:37:49;-1.10;99.90
14798;DHT22;7490;63.708;20.368;2024-03-07T15:40:16;-1.10;99.90
14798;DHT22;7490;63.708;20.368;2024-03-07T15:42:43;-1.20;99.90
14798;DHT22;7490;63.708;20.368;2024-03-07T15:45:13;-1.30;99.90
14798;DHT22;7490;63.708;20.368;2024-03-07T15:47:51;-1.30;99.90
14798;DHT22;7490;63.708;20.368;2024-03-07T15:50:18;-1.30;99.90
14798;DHT22;7490;63.708;20.368;2024-03-07T15:52:48;-1.40;99.90
14798;DHT22;7490;63.708;20.368;2024-03-07T15:55:18;-1.40;99.90
14798;DHT22;7490;63.708;20.368;2024-03-07T15:57:47;-1.40;99.90
14798;DHT22;7490;63.708;20.368;2024-03-07T16:00:16;-1.40;99.90
14798;DHT22;7490;63.708;20.368;2024-03-07T16:03:01;-1.50;99.90
14798;DHT22;7490;63.708;20.368;2024-03-07T16:05:30;-1.50;99.90
14798;DHT22;7490;63.708;20.368;2024-03-07T16:07:58;-1.60;99.90
14798;DHT22;7490;63.708;20.368;2024-03-07T16:10:26;-1.60;99.90
14798;DHT22;7490;63.708;20.368;2024-03-07T16:12:59;-1.60;99.90
14798;DHT22;7490;63.708;20.368;2024-03-07T16:15:26;-1.70;99.90
14798;DHT22;7490;63.708;20.368;2024-03-07T16:17:53;-1.70;99.90
14798;DHT22;7490;63.708;20.368;2024-03-07T16:20:22;-1.70;99.90
14798;DHT22;7490;63.708;20.368;2024-03-07T16:22:48;-1.80;99.90